createdAt,value
2023-05-10T00:03:01.895Z,94294
2023-05-10T00:06:26.944Z,94291
2023-05-10T00:09:52.117Z,94285
2023-05-10T00:13:17.272Z,94287
2023-05-10T00:16:42.438Z,94283
2023-05-10T00:20:07.576Z,94278
2023-05-10T00:23:32.675Z,94278
2023-05-10T00:26:57.805Z,94274
2023-05-10T00:30:22.936Z,94277
2023-05-10T00:33:48.094Z,94273
2023-05-10T00:37:13.290Z,94272
2023-05-10T00:40:38.418Z,94268
2023-05-10T00:44:03.551Z,94263
2023-05-10T00:47:28.714Z,94256
2023-05-10T00:50:53.805Z,94258
2023-05-10T00:54:18.976Z,94256
2023-05-10T00:57:44.113Z,94255
2023-05-10T01:01:09.256Z,94249
2023-05-10T01:04:34.400Z,94240
2023-05-10T01:07:59.544Z,94245
2023-05-10T01:11:24.719Z,94244
2023-05-10T01:14:49.822Z,94244
2023-05-10T01:18:14.947Z,94239
2023-05-10T01:21:40.100Z,94238
2023-05-10T01:25:05.241Z,94237
2023-05-10T01:28:30.389Z,94233
2023-05-10T01:31:55.526Z,94233
2023-05-10T01:35:20.674Z,94238
2023-05-10T01:38:45.842Z,94234
2023-05-10T01:42:11.004Z,94238
2023-05-10T01:45:36.188Z,94231
2023-05-10T01:49:01.348Z,94231
2023-05-10T01:52:26.489Z,94230
2023-05-10T01:55:51.631Z,94230
2023-05-10T01:59:16.767Z,94229
2023-05-10T02:02:42.013Z,94229
2023-05-10T02:06:07.143Z,94232
2023-05-10T02:09:32.329Z,94230
2023-05-10T02:12:57.481Z,94231
2023-05-10T02:16:22.711Z,94233
2023-05-10T02:19:47.813Z,94233
2023-05-10T02:23:12.934Z,94227
2023-05-10T02:26:38.077Z,94222
2023-05-10T02:30:03.224Z,94226
2023-05-10T02:33:28.346Z,94223
2023-05-10T02:36:53.495Z,94222
2023-05-10T02:40:18.878Z,94220
2023-05-10T02:43:43.803Z,94229
2023-05-10T02:47:08.971Z,94221
2023-05-10T02:50:34.145Z,94221
2023-05-10T02:53:59.459Z,94223
2023-05-10T02:57:24.479Z,94221
2023-05-10T03:00:49.645Z,94216
2023-05-10T03:04:14.790Z,94224
2023-05-10T03:07:39.976Z,94222
2023-05-10T03:11:05.152Z,94221
2023-05-10T03:14:30.308Z,94224
2023-05-10T03:17:55.530Z,94216
2023-05-10T03:21:20.601Z,94216
2023-05-10T03:24:45.983Z,94214
2023-05-10T03:28:11.221Z,94217
2023-05-10T03:31:36.458Z,94216
2023-05-10T03:35:01.642Z,94217
2023-05-10T03:38:27.800Z,94223
2023-05-10T03:41:52.048Z,94225
2023-05-10T03:45:17.303Z,94221
2023-05-10T03:48:42.476Z,94225
2023-05-10T03:52:07.636Z,94224
2023-05-10T03:55:32.777Z,94225
2023-05-10T03:58:57.892Z,94240
2023-05-10T04:02:23.088Z,94241
2023-05-10T04:05:48.162Z,94226
2023-05-10T04:09:13.316Z,94229
2023-05-10T04:12:38.456Z,94231
2023-05-10T04:16:03.577Z,94231
2023-05-10T04:19:28.723Z,94243
2023-05-10T04:22:53.836Z,94238
2023-05-10T04:26:18.963Z,94237
2023-05-10T04:29:44.104Z,94235
2023-05-10T04:33:09.238Z,94231
2023-05-10T04:36:34.383Z,94237
2023-05-10T04:39:59.492Z,94243
2023-05-10T04:43:24.619Z,94246
2023-05-10T04:46:49.869Z,94241
2023-05-10T04:50:15.056Z,94242
2023-05-10T04:53:40.120Z,94234
2023-05-10T04:57:05.224Z,94239
2023-05-10T05:00:30.352Z,94242
2023-05-10T05:03:55.590Z,94245
2023-05-10T05:07:20.610Z,94242
2023-05-10T05:10:45.770Z,94246
2023-05-10T05:14:10.889Z,94253
2023-05-10T05:17:36.025Z,94257
2023-05-10T05:21:01.164Z,94262
2023-05-10T05:24:26.300Z,94262
2023-05-10T05:27:51.646Z,94276
2023-05-10T05:31:16.764Z,94274
2023-05-10T05:34:41.894Z,94281
2023-05-10T05:38:07.039Z,94284
2023-05-10T05:41:32.178Z,94275
2023-05-10T05:44:57.386Z,94279
2023-05-10T05:48:22.456Z,94282
2023-05-10T05:51:47.574Z,94288
2023-05-10T05:55:12.701Z,94295
2023-05-10T05:58:37.870Z,94300
2023-05-10T06:02:03.048Z,94307
2023-05-10T06:05:28.122Z,94311
2023-05-10T06:08:53.281Z,94319
2023-05-10T06:12:18.397Z,94323
2023-05-10T06:15:43.512Z,94325
2023-05-10T06:19:08.666Z,94326
2023-05-10T06:22:33.754Z,94325
2023-05-10T06:25:58.915Z,94331
2023-05-10T06:29:24.016Z,94331
2023-05-10T06:32:49.157Z,94332
2023-05-10T06:36:14.414Z,94335
2023-05-10T06:39:39.434Z,94344
2023-05-10T06:43:04.566Z,94347
2023-05-10T06:46:29.748Z,94345
2023-05-10T06:49:54.824Z,94346
2023-05-10T06:53:20.006Z,94348
2023-05-10T06:56:45.119Z,94352
2023-05-10T07:00:10.281Z,94348
2023-05-10T07:03:35.404Z,94356
2023-05-10T07:07:00.564Z,94354
2023-05-10T07:10:25.781Z,94356
2023-05-10T07:13:50.886Z,94355
2023-05-10T07:17:16.021Z,94360
2023-05-10T07:20:41.157Z,94356
2023-05-10T07:24:06.320Z,94356
2023-05-10T07:27:31.548Z,94361
2023-05-10T07:30:56.657Z,94368
2023-05-10T07:34:21.782Z,94370
2023-05-10T07:37:46.928Z,94365
2023-05-10T07:41:12.068Z,94372
2023-05-10T07:44:37.256Z,94372
2023-05-10T07:48:02.375Z,94377
2023-05-10T07:51:27.501Z,94381
2023-05-10T07:54:52.633Z,94384
2023-05-10T07:58:17.798Z,94385
2023-05-10T08:01:42.958Z,94384
2023-05-10T08:05:08.068Z,94382
2023-05-10T08:08:33.185Z,94382
2023-05-10T08:11:58.339Z,94381
2023-05-10T08:15:23.496Z,94389
2023-05-10T08:18:48.705Z,94388
2023-05-10T08:22:13.764Z,94383
2023-05-10T08:25:39.807Z,94386
2023-05-10T08:29:04.950Z,94385
2023-05-10T08:32:30.160Z,94391
2023-05-10T08:35:55.355Z,94393
2023-05-10T08:39:29.633Z,94394
2023-05-10T08:42:45.642Z,94400
2023-05-10T08:46:10.878Z,94403
2023-05-10T08:49:36.069Z,94408
2023-05-10T08:53:01.194Z,94411
2023-05-10T08:56:26.340Z,94416
2023-05-10T08:59:51.505Z,94414
2023-05-10T09:03:16.714Z,94413
2023-05-10T09:06:41.913Z,94415
2023-05-10T09:10:07.082Z,94416
2023-05-10T09:13:32.266Z,94422
2023-05-10T09:16:57.462Z,94428
2023-05-10T09:20:22.646Z,94432
2023-05-10T09:23:48.494Z,94439
2023-05-10T09:27:13.085Z,94443
2023-05-10T09:30:38.331Z,94448
2023-05-10T09:34:03.556Z,94448
2023-05-10T09:37:28.772Z,94451
2023-05-10T09:40:53.947Z,94449
2023-05-10T09:44:19.367Z,94446
2023-05-10T09:47:44.400Z,94449
2023-05-10T09:51:09.576Z,94455
2023-05-10T09:54:34.782Z,94453
2023-05-10T09:58:00.010Z,94447
2023-05-10T10:01:25.330Z,94446
2023-05-10T10:04:50.641Z,94452
2023-05-10T10:08:15.782Z,94452
2023-05-10T10:11:41.101Z,94452
2023-05-10T10:15:06.454Z,94452
2023-05-10T10:18:32.539Z,94453
2023-05-10T10:21:57.738Z,94450
2023-05-10T10:25:22.969Z,94452
2023-05-10T10:28:48.244Z,94447
2023-05-10T10:32:13.569Z,94451
2023-05-10T10:35:38.878Z,94445
2023-05-10T10:39:04.374Z,94451
2023-05-10T10:42:54.306Z,94448
2023-05-10T10:46:19.591Z,94445
2023-05-10T10:49:44.722Z,94446
2023-05-10T10:53:10.207Z,94449
2023-05-10T10:56:37.006Z,94451
2023-05-10T11:00:00.462Z,94448
2023-05-10T11:03:25.639Z,94452
2023-05-10T11:06:50.797Z,94457
2023-05-10T11:10:16.017Z,94463
2023-05-10T11:13:41.189Z,94464
2023-05-10T11:17:06.430Z,94457
2023-05-10T11:20:31.568Z,94457
2023-05-10T11:23:56.723Z,94460
2023-05-10T11:27:21.893Z,94454
2023-05-10T11:30:47.157Z,94463
2023-05-10T11:34:12.254Z,94461
2023-05-10T11:37:37.401Z,94457
2023-05-10T11:41:02.580Z,94455
2023-05-10T11:44:27.763Z,94455
2023-05-10T11:47:52.941Z,94460
2023-05-10T11:51:18.016Z,94462
2023-05-10T11:54:43.188Z,94462
2023-05-10T11:58:08.358Z,94467
2023-05-10T12:01:33.540Z,94460
2023-05-10T12:04:58.701Z,94463
2023-05-10T12:08:23.771Z,94463
2023-05-10T12:11:48.924Z,94464
2023-05-10T12:15:14.042Z,94471
2023-05-10T12:18:39.227Z,94478
2023-05-10T12:22:04.356Z,94474
2023-05-10T12:25:29.567Z,94474
2023-05-10T12:28:54.759Z,94471
2023-05-10T12:32:19.974Z,94471
2023-05-10T12:35:45.332Z,94470
2023-05-10T12:39:10.426Z,94481
2023-05-10T12:42:35.689Z,94475
2023-05-10T12:46:00.959Z,94479
2023-05-10T12:49:26.127Z,94478
2023-05-10T12:52:51.290Z,94478
2023-05-10T12:56:16.429Z,94482
2023-05-10T12:59:41.618Z,94486
2023-05-10T13:03:06.799Z,94486
2023-05-10T13:06:31.937Z,94505
2023-05-10T13:09:57.140Z,94499
2023-05-10T13:13:22.400Z,94500
2023-05-10T13:16:47.532Z,94504
2023-05-10T13:20:12.683Z,94504
2023-05-10T13:23:37.846Z,94504
2023-05-10T13:27:03.000Z,94503
2023-05-10T13:30:28.144Z,94507
2023-05-10T13:33:53.347Z,94499
2023-05-10T13:37:18.544Z,94502
2023-05-10T13:40:43.715Z,94497
2023-05-10T13:44:08.914Z,94506
2023-05-10T13:47:34.112Z,94506
2023-05-10T13:50:59.253Z,94506
2023-05-10T13:54:24.442Z,94499
2023-05-10T13:57:49.609Z,94500
2023-05-10T14:01:14.960Z,94498
2023-05-10T14:04:40.056Z,94502
2023-05-10T14:08:05.212Z,94506
2023-05-10T14:11:30.399Z,94505
2023-05-10T14:14:55.618Z,94503
2023-05-10T14:18:20.913Z,94501
2023-05-10T14:21:46.104Z,94503
2023-05-10T14:25:11.240Z,94510
2023-05-10T14:28:36.409Z,94511
2023-05-10T14:32:01.584Z,94507
2023-05-10T14:35:26.771Z,94511
2023-05-10T14:38:51.939Z,94512
2023-05-10T14:42:17.104Z,94505
2023-05-10T14:45:42.338Z,94507
2023-05-10T14:49:07.523Z,94501
2023-05-10T14:52:34.209Z,94505
2023-05-10T14:55:57.828Z,94509
2023-05-10T14:59:23.050Z,94516
2023-05-10T15:02:48.309Z,94510
2023-05-10T15:06:13.467Z,94521
2023-05-10T15:09:38.677Z,94528
2023-05-10T15:46:53.726Z,94535
2023-05-10T15:50:18.837Z,94544
2023-05-10T15:53:53.072Z,94546
2023-05-10T15:57:09.152Z,94547
2023-05-10T16:00:34.360Z,94544
2023-05-10T16:03:59.595Z,94546
2023-05-10T16:07:24.782Z,94545
2023-05-10T16:10:49.935Z,94544
2023-05-10T16:14:15.087Z,94547
2023-05-10T16:17:40.323Z,94551
2023-05-10T16:21:05.444Z,94555
2023-05-10T16:24:30.669Z,94557
2023-05-10T16:27:55.855Z,94556
2023-05-10T16:31:21.058Z,94563
2023-05-10T16:34:46.186Z,94564
2023-05-10T16:38:11.438Z,94560
2023-05-10T16:41:36.580Z,94567
2023-05-10T16:45:01.778Z,94571
2023-05-10T16:48:26.952Z,94579
2023-05-10T16:51:52.130Z,94580
2023-05-10T16:55:17.508Z,94586
2023-05-10T16:58:42.463Z,94584
2023-05-10T17:02:07.698Z,94586
2023-05-10T17:05:32.769Z,94591
2023-05-10T17:08:58.008Z,94590
2023-05-10T17:12:23.288Z,94596
2023-05-10T17:15:48.685Z,94594
2023-05-10T17:19:13.639Z,94598
2023-05-10T17:22:38.792Z,94599
2023-05-10T17:26:03.954Z,94603
2023-05-10T17:29:29.397Z,94601
2023-05-10T17:32:54.578Z,94599
2023-05-10T17:36:19.722Z,94603
2023-05-10T17:39:44.912Z,94601
2023-05-10T17:43:10.075Z,94613
2023-05-10T17:46:35.265Z,94614
2023-05-10T17:50:00.438Z,94613
2023-05-10T17:53:25.676Z,94618
2023-05-10T17:56:50.835Z,94621
2023-05-10T18:00:16.016Z,94625
2023-05-10T18:03:41.178Z,94624
2023-05-10T18:07:06.350Z,94622
2023-05-10T18:10:31.524Z,94623
2023-05-10T18:13:56.702Z,94628
2023-05-10T18:17:21.838Z,94629
2023-05-10T18:20:47.019Z,94633
2023-05-10T18:24:12.249Z,94635
2023-05-10T18:27:37.330Z,94638
2023-05-10T18:31:02.525Z,94639
2023-05-10T18:34:27.682Z,94643
2023-05-10T18:37:52.842Z,94641
2023-05-10T18:41:17.963Z,94646
2023-05-10T18:44:43.090Z,94647
2023-05-10T18:48:08.306Z,94649
2023-05-10T18:51:33.412Z,94648
2023-05-10T18:54:58.546Z,94655
2023-05-10T18:58:23.662Z,94661
2023-05-10T19:01:50.903Z,94663
2023-05-10T19:05:14.011Z,94660
2023-05-10T19:08:39.114Z,94660
2023-05-10T19:12:04.300Z,94672
2023-05-10T19:15:29.427Z,94676
2023-05-10T19:18:59.265Z,94674
2023-05-10T19:22:43.519Z,94675
2023-05-10T19:25:53.254Z,94676
2023-05-10T19:29:19.314Z,94678
2023-05-10T19:32:44.981Z,94686
2023-05-10T19:36:10.619Z,94691
2023-05-10T19:39:35.850Z,94689
2023-05-10T19:43:01.595Z,94692
2023-05-10T19:46:26.784Z,94689
2023-05-10T19:49:51.976Z,94689
2023-05-10T19:53:17.072Z,94689
2023-05-10T19:56:42.251Z,94685
2023-05-10T20:00:07.409Z,94689
2023-05-10T20:03:32.626Z,94690
2023-05-10T20:06:57.732Z,94690
2023-05-10T20:10:24.271Z,94688
2023-05-10T20:13:48.029Z,94686
2023-05-10T20:17:13.242Z,94688
2023-05-10T20:20:38.418Z,94691
2023-05-10T20:24:03.560Z,94684
2023-05-10T20:27:28.725Z,94684
2023-05-10T20:30:53.850Z,94690
2023-05-10T20:34:18.967Z,94693
2023-05-10T20:37:44.176Z,94685
2023-05-10T20:41:09.311Z,94682
2023-05-10T20:44:34.470Z,94682
2023-05-10T20:47:59.640Z,94680
2023-05-10T20:51:24.757Z,94676
2023-05-10T20:54:49.916Z,94676
2023-05-10T20:58:15.002Z,94681
2023-05-10T21:01:40.167Z,94680
2023-05-10T21:05:05.354Z,94679
2023-05-10T21:08:30.452Z,94680
2023-05-10T21:11:55.636Z,94679
2023-05-10T21:15:20.736Z,94674
2023-05-10T21:18:45.913Z,94672
2023-05-10T21:22:11.066Z,94675
2023-05-10T21:25:36.236Z,94670
2023-05-10T21:29:01.425Z,94671
2023-05-10T21:32:26.588Z,94673
2023-05-10T21:35:51.761Z,94676
2023-05-10T21:39:16.848Z,94676
2023-05-10T21:42:41.998Z,94677
2023-05-10T21:46:07.221Z,94675
2023-05-10T21:49:32.310Z,94675
2023-05-10T21:52:57.491Z,94677
2023-05-10T21:56:22.624Z,94676
2023-05-10T21:59:47.792Z,94676
2023-05-10T22:03:13.096Z,94677
2023-05-10T22:06:38.088Z,94673
2023-05-10T22:10:03.241Z,94675
2023-05-10T22:13:28.385Z,94674
2023-05-10T22:16:53.564Z,94671
2023-05-10T22:20:19.021Z,94667
2023-05-10T22:23:43.866Z,94672
2023-05-10T22:27:09.016Z,94677
2023-05-10T22:30:34.167Z,94677
2023-05-10T22:33:59.336Z,94674
2023-05-10T22:37:24.511Z,94674
2023-05-10T22:40:49.667Z,94671
2023-05-10T22:44:14.827Z,94674
2023-05-10T22:47:39.985Z,94673
2023-05-10T22:51:05.108Z,94673
2023-05-10T22:54:30.308Z,94677
2023-05-10T22:57:55.449Z,94678
2023-05-10T23:01:20.609Z,94672
2023-05-10T23:04:45.762Z,94672
2023-05-10T23:08:10.852Z,94670
2023-05-10T23:11:36.028Z,94676
2023-05-10T23:15:01.170Z,94670
2023-05-10T23:18:26.331Z,94674
2023-05-10T23:21:51.492Z,94674
2023-05-10T23:25:16.612Z,94675
2023-05-10T23:28:41.819Z,94673
2023-05-10T23:32:06.912Z,94672
2023-05-10T23:35:32.040Z,94670
2023-05-10T23:38:57.165Z,94671
2023-05-10T23:42:22.313Z,94673
2023-05-10T23:45:47.516Z,94661
2023-05-10T23:49:12.612Z,94664
2023-05-10T23:52:37.757Z,94664
2023-05-10T23:56:02.904Z,94661
2023-05-10T23:59:28.120Z,94659
